createdAt,value
2019-04-21T00:02:24.116Z,13.22
2019-04-21T00:05:00.847Z,13.70
2019-04-21T00:07:36.196Z,13.32
2019-04-21T00:10:14.994Z,13.30
2019-04-21T00:12:40.516Z,13.78
2019-04-21T00:15:01.993Z,13.75
2019-04-21T00:17:27.069Z,14.40
2019-04-21T00:20:09.161Z,13.25
2019-04-21T00:22:41.312Z,15.65
2019-04-21T00:25:15.367Z,14.95
2019-04-21T00:27:47.830Z,12.80
2019-04-21T00:30:30.341Z,14.45
2019-04-21T00:32:50.240Z,13.68
2019-04-21T00:35:13.362Z,15.95
2019-04-21T00:38:00.538Z,14.13
2019-04-21T00:40:35.532Z,13.85
2019-04-21T00:43:01.262Z,14.38
2019-04-21T00:45:29.084Z,14.50
2019-04-21T00:48:08.272Z,15.40
2019-04-21T00:50:40.749Z,16.42
2019-04-21T00:53:14.850Z,15.72
2019-04-21T00:55:50.688Z,17.07
2019-04-21T00:58:28.415Z,17.25
2019-04-21T01:00:51.094Z,17.73
2019-04-21T01:03:26.667Z,18.15
2019-04-21T01:08:25.123Z,16.55
2019-04-21T01:10:49.950Z,18.35
2019-04-21T01:13:36.282Z,19.45
2019-04-21T01:16:22.299Z,22.58
2019-04-21T01:18:32.637Z,20.72
2019-04-21T01:20:43.177Z,21.57
2019-04-21T01:23:12.881Z,21.48
2019-04-21T01:25:57.169Z,21.97
2019-04-21T01:28:29.268Z,20.60
2019-04-21T01:31:07.517Z,20.02
2019-04-21T01:33:42.829Z,19.32
2019-04-21T01:36:03.899Z,20.20
2019-04-21T01:38:40.245Z,19.70
2019-04-21T01:41:16.314Z,19.95
2019-04-21T01:43:39.519Z,19.30
2019-04-21T01:46:10.732Z,19.75
2019-04-21T01:48:41.650Z,18.00
2019-04-21T01:51:15.058Z,18.87
2019-04-21T01:53:56.455Z,18.20
2019-04-21T01:56:31.798Z,19.37
2019-04-21T01:58:53.262Z,19.32
2019-04-21T02:01:36.042Z,20.97
2019-04-21T02:04:01.142Z,20.92
2019-04-21T02:06:36.209Z,20.20
2019-04-21T02:09:08.262Z,19.32
2019-04-21T02:11:43.333Z,21.45
2019-04-21T02:14:10.207Z,20.32
2019-04-21T02:16:40.515Z,19.32
2019-04-21T02:19:08.450Z,19.30
2019-04-21T02:21:38.279Z,19.73
2019-04-21T02:24:25.458Z,20.00
2019-04-21T02:26:45.754Z,19.12
2019-04-21T02:29:20.564Z,18.37
2019-04-21T02:32:01.921Z,16.60
2019-04-21T02:34:32.224Z,15.32
2019-04-21T02:37:17.630Z,17.02
2019-04-21T02:42:20.078Z,16.17
2019-04-21T02:44:42.901Z,15.63
2019-04-21T02:47:14.186Z,16.20
2019-04-21T02:52:30.023Z,18.15
2019-04-21T02:57:15.826Z,19.75
2019-04-21T02:59:50.050Z,19.00
2019-04-21T03:05:13.566Z,20.70
2019-04-21T03:07:44.671Z,17.55
2019-04-21T03:10:12.213Z,18.45
2019-04-21T03:12:42.069Z,18.20
2019-04-21T03:15:22.050Z,17.80
2019-04-21T03:17:55.353Z,18.02
2019-04-21T03:20:18.978Z,15.72
2019-04-21T03:23:15.346Z,16.50
2019-04-21T03:28:00.781Z,14.25
2019-04-21T03:33:35.537Z,15.35
2019-04-21T03:37:52.992Z,15.05
2019-04-21T03:40:26.056Z,13.50
2019-04-21T03:42:57.801Z,13.70
2019-04-21T03:45:39.226Z,12.25
2019-04-21T03:48:05.293Z,13.38
2019-04-21T03:53:02.946Z,12.50
2019-04-21T04:00:58.590Z,13.78
2019-04-21T04:03:42.148Z,14.10
2019-04-21T04:11:03.047Z,12.53
2019-04-21T04:13:39.703Z,13.68
2019-04-21T04:16:05.753Z,13.80
2019-04-21T04:18:41.157Z,15.10
2019-04-21T04:21:12.241Z,13.75
2019-04-21T04:23:41.824Z,13.62
2019-04-21T04:26:07.407Z,13.68
2019-04-21T04:31:19.625Z,14.15
2019-04-21T04:38:52.150Z,13.50
2019-04-21T04:41:24.504Z,13.25
2019-04-21T04:43:54.591Z,13.32
2019-04-21T04:46:17.897Z,13.40
2019-04-21T04:48:57.299Z,11.65
2019-04-21T04:51:36.722Z,10.95
2019-04-21T04:53:51.162Z,10.05
2019-04-21T04:56:31.103Z,11.28
2019-04-21T04:59:24.542Z,11.70
2019-04-21T05:01:51.446Z,14.33
2019-04-21T05:06:42.469Z,17.32
2019-04-21T05:09:10.946Z,18.17
2019-04-21T05:16:46.937Z,14.18
2019-04-21T05:19:16.111Z,14.85
2019-04-21T05:24:01.351Z,12.58
2019-04-21T05:26:36.066Z,12.53
2019-04-21T05:28:58.828Z,12.20
2019-04-21T05:31:57.045Z,10.93
2019-04-21T05:34:22.102Z,11.40
2019-04-21T05:36:56.796Z,10.38
2019-04-21T05:39:42.097Z,11.33
2019-04-21T05:42:10.234Z,10.63
2019-04-21T05:45:00.191Z,12.53
2019-04-21T05:49:55.955Z,11.45
2019-04-21T05:52:22.825Z,11.68
2019-04-21T05:55:05.912Z,10.75
2019-04-21T05:57:33.560Z,11.05
2019-04-21T06:00:07.096Z,10.32
2019-04-21T06:02:38.485Z,11.15
2019-04-21T06:05:20.319Z,9.63
2019-04-21T06:07:41.038Z,10.75
2019-04-21T06:10:18.758Z,11.12
2019-04-21T06:12:46.661Z,10.08
2019-04-21T06:15:14.009Z,9.05
2019-04-21T06:17:54.937Z,10.10
2019-04-21T06:20:15.388Z,9.48
2019-04-21T06:22:52.014Z,11.20
2019-04-21T06:27:50.786Z,10.78
2019-04-21T06:30:19.476Z,17.37
2019-04-21T06:32:52.175Z,14.78
2019-04-21T06:35:39.743Z,7.92
2019-04-21T06:38:10.387Z,8.58
2019-04-21T06:40:35.820Z,8.90
2019-04-21T06:43:17.998Z,9.45
2019-04-21T06:45:45.936Z,7.92
2019-04-21T06:48:15.312Z,8.55
2019-04-21T06:50:46.647Z,12.37
2019-04-21T06:53:12.006Z,8.03
2019-04-21T06:55:41.891Z,8.60
2019-04-21T06:58:15.876Z,9.10
2019-04-21T07:00:41.343Z,7.00
2019-04-21T07:05:50.107Z,6.85
2019-04-21T07:08:34.635Z,12.80
2019-04-21T07:10:52.033Z,7.22
2019-04-21T07:13:15.332Z,6.30
2019-04-21T07:15:58.814Z,6.37
2019-04-21T07:18:27.524Z,5.62
2019-04-21T07:20:53.112Z,6.55
2019-04-21T07:23:32.259Z,7.83
2019-04-21T07:26:01.057Z,6.72
2019-04-21T07:28:25.364Z,8.45
2019-04-21T07:31:03.653Z,9.90
2019-04-21T07:36:03.966Z,6.00
2019-04-21T07:38:36.776Z,6.75
2019-04-21T07:40:59.607Z,6.00
2019-04-21T07:43:31.460Z,6.00
2019-04-21T07:46:03.625Z,6.00
2019-04-21T07:48:43.143Z,5.72
2019-04-21T07:51:18.859Z,6.08
2019-04-21T07:53:59.665Z,6.08
2019-04-21T07:56:09.231Z,6.37
2019-04-21T07:59:00.155Z,6.92
2019-04-21T08:01:25.725Z,6.78
2019-04-21T08:04:03.435Z,6.65
2019-04-21T08:07:06.335Z,5.55
2019-04-21T08:09:01.188Z,6.42
2019-04-21T08:11:25.470Z,7.15
2019-04-21T08:14:00.580Z,4.60
2019-04-21T08:16:35.020Z,4.92
2019-04-21T08:19:09.693Z,4.90
2019-04-21T08:21:35.451Z,4.08
2019-04-21T08:24:08.817Z,5.87
2019-04-21T08:26:45.060Z,4.37
2019-04-21T08:29:22.464Z,5.37
2019-04-21T08:31:50.008Z,5.40
2019-04-21T08:34:14.125Z,6.37
2019-04-21T08:36:40.315Z,8.23
2019-04-21T08:39:13.183Z,7.75
2019-04-21T08:41:45.331Z,6.20
2019-04-21T08:44:24.304Z,6.05
2019-04-21T08:46:52.608Z,5.67
2019-04-21T08:49:22.209Z,5.35
2019-04-21T08:51:53.862Z,6.42
2019-04-21T08:54:26.474Z,5.20
2019-04-21T08:57:01.275Z,4.80
2019-04-21T08:59:38.774Z,4.72
2019-04-21T09:02:18.143Z,5.20
2019-04-21T09:04:50.741Z,4.50
2019-04-21T09:07:23.916Z,4.10
2019-04-21T09:09:50.006Z,4.62
2019-04-21T09:12:21.292Z,5.15
2019-04-21T09:14:54.231Z,5.03
2019-04-21T09:17:17.700Z,4.10
2019-04-21T09:20:01.792Z,4.45
2019-04-21T09:22:28.357Z,5.05
2019-04-21T09:24:59.760Z,5.37
2019-04-21T09:27:26.521Z,5.90
2019-04-21T09:29:48.967Z,6.35
2019-04-21T09:32:18.244Z,6.17
2019-04-21T09:34:45.646Z,6.05
2019-04-21T09:37:26.533Z,5.25
2019-04-21T09:39:49.972Z,4.80
2019-04-21T09:42:19.726Z,4.50
2019-04-21T09:44:53.852Z,4.28
2019-04-21T09:47:23.484Z,4.35
2019-04-21T09:49:51.943Z,4.90
2019-04-21T09:52:27.029Z,5.33
2019-04-21T09:55:04.004Z,4.62
2019-04-21T09:57:36.692Z,4.80
2019-04-21T10:00:02.204Z,4.08
2019-04-21T10:02:34.235Z,4.50
2019-04-21T10:04:59.477Z,5.15
2019-04-21T10:07:34.705Z,5.10
2019-04-21T10:10:00.531Z,4.58
2019-04-21T10:12:30.685Z,3.65
2019-04-21T10:15:00.286Z,4.22
2019-04-21T10:17:32.933Z,4.12
2019-04-21T10:20:03.161Z,4.40
2019-04-21T10:22:33.087Z,3.90
2019-04-21T10:25:06.770Z,4.12
2019-04-21T10:27:39.376Z,3.83
2019-04-21T10:30:10.127Z,4.03
2019-04-21T10:32:40.617Z,3.27
2019-04-21T10:35:10.998Z,4.25
2019-04-21T10:37:50.414Z,3.40
2019-04-21T10:40:13.718Z,4.00
2019-04-21T10:42:43.477Z,3.85
2019-04-21T10:45:14.793Z,4.65
2019-04-21T10:47:45.042Z,4.70
2019-04-21T10:50:16.158Z,3.98
2019-04-21T10:52:59.116Z,4.28
2019-04-21T10:55:44.721Z,3.52
2019-04-21T10:58:06.505Z,3.67
2019-04-21T11:00:36.782Z,3.83
2019-04-21T11:03:24.829Z,3.40
2019-04-21T11:05:56.700Z,3.65
2019-04-21T11:08:32.281Z,3.52
2019-04-21T11:10:58.210Z,3.87
2019-04-21T11:13:28.409Z,3.55
2019-04-21T11:15:59.172Z,4.08
2019-04-21T11:18:30.091Z,3.98
2019-04-21T11:21:00.858Z,4.40
2019-04-21T11:23:31.274Z,4.08
2019-04-21T11:26:04.469Z,3.80
2019-04-21T11:28:34.629Z,3.80
2019-04-21T11:31:04.964Z,4.12
2019-04-21T11:33:35.616Z,4.55
2019-04-21T11:36:06.927Z,4.30
2019-04-21T11:38:54.282Z,4.62
2019-04-21T11:41:09.894Z,3.98
2019-04-21T11:43:39.527Z,4.50
2019-04-21T11:46:10.671Z,4.08
2019-04-21T11:48:40.492Z,11.60
2019-04-21T11:51:11.030Z,3.58
2019-04-21T11:53:41.104Z,4.03
2019-04-21T11:56:10.849Z,4.10
2019-04-21T11:58:41.570Z,4.03
2019-04-21T12:01:11.628Z,7.15
2019-04-21T12:03:41.973Z,3.87
2019-04-21T12:06:11.646Z,4.05
2019-04-21T12:08:46.201Z,4.03
2019-04-21T12:11:13.703Z,4.87
2019-04-21T12:13:43.353Z,3.72
2019-04-21T12:16:13.109Z,3.80
2019-04-21T12:18:43.013Z,3.92
2019-04-21T12:21:13.606Z,4.03
2019-04-21T12:23:44.667Z,3.98
2019-04-21T12:26:15.846Z,3.87
2019-04-21T12:28:45.986Z,4.92
2019-04-21T12:31:23.500Z,4.53
2019-04-21T12:34:00.444Z,4.30
2019-04-21T12:36:31.634Z,4.30
2019-04-21T12:39:03.703Z,4.47
2019-04-21T12:41:33.011Z,3.80
2019-04-21T12:44:02.676Z,4.20
2019-04-21T12:46:32.253Z,4.03
2019-04-21T12:49:02.210Z,4.45
2019-04-21T12:51:33.620Z,4.40
2019-04-21T12:54:03.816Z,4.17
2019-04-21T12:56:33.712Z,4.33
2019-04-21T12:59:03.505Z,4.90
2019-04-21T13:01:34.979Z,4.03
2019-04-21T13:04:05.899Z,3.90
2019-04-21T13:06:35.754Z,4.47
2019-04-21T13:09:10.752Z,4.28
2019-04-21T13:11:39.261Z,4.75
2019-04-21T13:14:09.079Z,4.85
2019-04-21T13:16:39.229Z,4.67
2019-04-21T13:19:09.393Z,4.72
2019-04-21T13:21:40.321Z,4.55
2019-04-21T13:24:10.051Z,4.05
2019-04-21T13:26:48.426Z,4.35
2019-04-21T13:29:12.264Z,4.42
2019-04-21T13:31:42.581Z,4.17
2019-04-21T13:34:13.676Z,4.03
2019-04-21T13:36:43.760Z,3.70
2019-04-21T13:39:50.291Z,4.42
2019-04-21T13:42:13.418Z,4.47
2019-04-21T13:44:35.030Z,4.05
2019-04-21T13:47:05.015Z,3.80
2019-04-21T13:49:35.129Z,4.15
2019-04-21T13:52:04.966Z,3.85
2019-04-21T13:54:35.693Z,3.67
2019-04-21T13:57:05.471Z,3.50
2019-04-21T13:59:36.321Z,3.62
2019-04-21T14:02:06.865Z,3.60
2019-04-21T14:04:37.849Z,3.52
2019-04-21T14:07:08.198Z,3.77
2019-04-21T14:09:47.660Z,3.67
2019-04-21T14:12:09.738Z,3.47
2019-04-21T14:14:39.976Z,3.45
2019-04-21T14:17:10.869Z,4.20
2019-04-21T14:19:41.554Z,3.60
2019-04-21T14:22:13.926Z,3.42
2019-04-21T14:24:43.851Z,3.40
2019-04-21T14:27:14.377Z,3.33
2019-04-21T14:29:44.091Z,4.25
2019-04-21T14:32:14.082Z,3.77
2019-04-21T14:34:44.349Z,4.37
2019-04-21T14:37:15.087Z,3.20
2019-04-21T14:39:52.783Z,48.48
2019-04-21T14:42:16.108Z,3.65
2019-04-21T14:44:46.933Z,3.72
2019-04-21T14:47:18.836Z,3.25
2019-04-21T14:49:51.054Z,3.20
2019-04-21T14:52:25.378Z,3.40
2019-04-21T14:54:56.671Z,2.77
2019-04-21T14:57:27.361Z,2.80
2019-04-21T14:59:57.375Z,2.60
2019-04-21T15:02:27.769Z,3.00
2019-04-21T15:04:57.897Z,2.45
2019-04-21T15:07:27.660Z,3.00
2019-04-21T15:10:04.434Z,3.40
2019-04-21T15:12:29.904Z,3.02
2019-04-21T15:15:00.189Z,3.10
2019-04-21T15:17:29.842Z,2.92
2019-04-21T15:20:04.597Z,2.40
2019-04-21T15:22:30.854Z,2.65
2019-04-21T15:25:00.721Z,2.40
2019-04-21T15:27:30.728Z,2.83
2019-04-21T15:30:00.668Z,2.75
2019-04-21T15:32:30.671Z,6.70
2019-04-21T15:35:00.527Z,2.83
2019-04-21T15:37:31.598Z,2.40
2019-04-21T15:40:12.271Z,2.98
2019-04-21T15:42:32.830Z,2.77
2019-04-21T15:45:02.924Z,2.50
2019-04-21T15:47:33.788Z,2.70
2019-04-21T15:50:10.512Z,2.42
2019-04-21T15:52:35.881Z,2.50
2019-04-21T15:55:12.631Z,2.52
2019-04-21T15:58:02.694Z,2.62
2019-04-21T16:00:42.943Z,2.50
2019-04-21T16:03:12.969Z,2.65
2019-04-21T16:05:42.733Z,2.67
2019-04-21T16:08:12.368Z,2.65
2019-04-21T16:10:48.929Z,2.55
2019-04-21T16:13:13.940Z,2.75
2019-04-21T16:15:44.297Z,2.67
2019-04-21T16:18:14.206Z,3.95
2019-04-21T16:20:44.013Z,2.75
2019-04-21T16:23:14.890Z,2.47
2019-04-21T16:25:44.602Z,2.50
2019-04-21T16:28:15.443Z,2.80
2019-04-21T16:30:46.457Z,2.47
2019-04-21T16:33:16.224Z,2.62
2019-04-21T16:35:47.492Z,2.75
2019-04-21T16:38:17.551Z,2.83
2019-04-21T16:40:54.178Z,2.58
2019-04-21T16:43:19.958Z,2.52
2019-04-21T16:45:50.757Z,2.65
2019-04-21T16:48:21.167Z,2.90
2019-04-21T16:50:52.006Z,2.95
2019-04-21T16:53:30.294Z,2.50
2019-04-21T16:56:02.666Z,2.58
2019-04-21T16:58:46.418Z,3.17
2019-04-21T17:01:20.029Z,2.30
2019-04-21T17:03:50.245Z,2.40
2019-04-21T17:06:20.186Z,2.37
2019-04-21T17:08:50.590Z,2.65
2019-04-21T17:11:26.171Z,2.50
2019-04-21T17:13:52.065Z,4.33
2019-04-21T17:16:55.157Z,3.70
2019-04-21T17:19:01.888Z,2.50
2019-04-21T17:21:25.951Z,2.47
2019-04-21T17:23:56.646Z,2.87
2019-04-21T17:26:27.011Z,3.00
2019-04-21T17:28:56.779Z,2.98
2019-04-21T17:31:26.792Z,3.25
2019-04-21T17:34:02.144Z,2.65
2019-04-21T17:36:29.318Z,2.83
2019-04-21T17:39:00.116Z,2.55
2019-04-21T17:41:36.459Z,3.62
2019-04-21T17:44:02.585Z,5.70
2019-04-21T17:46:40.703Z,3.98
2019-04-21T17:49:05.223Z,2.77
2019-04-21T17:51:52.651Z,7.95
2019-04-21T17:54:24.789Z,3.45
2019-04-21T17:57:12.491Z,3.62
2019-04-21T17:59:51.053Z,3.20
2019-04-21T18:02:13.194Z,4.20
2019-04-21T18:04:42.971Z,4.83
2019-04-21T18:07:26.094Z,6.30
2019-04-21T18:10:00.456Z,4.70
2019-04-21T18:12:28.068Z,6.58
2019-04-21T18:14:52.957Z,14.95
2019-04-21T18:17:16.238Z,12.28
2019-04-21T18:19:49.047Z,16.20
2019-04-21T18:22:37.100Z,15.20
2019-04-21T18:25:09.888Z,14.87
2019-04-21T18:27:36.627Z,14.33
2019-04-21T18:30:12.549Z,13.48
2019-04-21T18:32:42.536Z,13.98
2019-04-21T18:35:17.732Z,11.85
2019-04-21T18:38:04.546Z,12.10
2019-04-21T18:40:31.733Z,13.80
2019-04-21T18:43:38.355Z,12.03
2019-04-21T18:46:06.997Z,9.18
2019-04-21T18:48:21.833Z,7.80
2019-04-21T18:51:00.287Z,12.98
2019-04-21T18:53:44.949Z,14.38
2019-04-21T18:56:05.682Z,16.00
2019-04-21T18:58:32.659Z,15.70
2019-04-21T19:01:07.541Z,17.20
2019-04-21T19:03:40.994Z,18.98
2019-04-21T19:06:11.736Z,17.67
2019-04-21T19:08:59.754Z,14.55
2019-04-21T19:11:24.026Z,14.90
2019-04-21T19:14:20.357Z,15.90
2019-04-21T19:16:41.513Z,18.20
2019-04-21T19:19:38.274Z,16.52
2019-04-21T19:21:40.404Z,16.40
2019-04-21T19:26:57.466Z,20.43
2019-04-21T19:29:26.706Z,20.60
2019-04-21T19:31:49.677Z,22.10
2019-04-21T19:34:11.324Z,22.93
2019-04-21T19:36:34.453Z,22.22
2019-04-21T19:39:13.475Z,22.35
2019-04-21T19:41:52.139Z,64.07
2019-04-21T19:44:30.691Z,48.73
2019-04-21T19:46:58.350Z,38.55
2019-04-21T19:49:32.067Z,25.05
2019-04-21T19:51:53.988Z,21.42
2019-04-21T19:54:24.276Z,24.90
2019-04-21T19:56:47.094Z,21.48
2019-04-21T19:59:19.974Z,20.25
2019-04-21T20:01:49.974Z,19.32
2019-04-21T20:04:20.028Z,18.20
2019-04-21T20:07:01.756Z,16.35
2019-04-21T20:09:37.512Z,15.68
2019-04-21T20:12:08.205Z,21.73
2019-04-21T20:17:08.455Z,20.25
2019-04-21T20:19:26.795Z,15.05
2019-04-21T20:21:56.917Z,16.73
2019-04-21T20:24:30.317Z,13.40
2019-04-21T20:27:06.932Z,12.82
2019-04-21T20:29:49.834Z,13.32
2019-04-21T20:32:24.377Z,15.28
2019-04-21T20:34:57.795Z,15.43
2019-04-21T20:37:21.310Z,15.83
2019-04-21T20:39:46.061Z,20.68
2019-04-21T20:42:20.867Z,21.90
2019-04-21T20:44:58.370Z,17.17
2019-04-21T20:47:22.239Z,20.65
2019-04-21T20:49:51.143Z,14.98
2019-04-21T20:52:41.734Z,19.65
2019-04-21T20:54:56.831Z,20.45
2019-04-21T20:57:29.928Z,21.62
2019-04-21T21:00:05.746Z,24.52
2019-04-21T21:02:39.057Z,23.80
2019-04-21T21:04:57.275Z,29.48
2019-04-21T21:07:49.202Z,23.98
2019-04-21T21:10:10.945Z,22.20
2019-04-21T21:12:46.746Z,14.98
2019-04-21T21:15:06.485Z,28.73
2019-04-21T21:17:52.579Z,25.77
2019-04-21T21:20:18.029Z,36.73
2019-04-21T21:22:43.849Z,39.33
2019-04-21T21:25:23.369Z,33.83
2019-04-21T21:27:41.864Z,28.47
2019-04-21T21:30:15.683Z,42.03
2019-04-21T21:33:05.613Z,46.77
2019-04-21T21:35:29.622Z,19.32
2019-04-21T21:38:08.242Z,20.08
2019-04-21T21:40:38.260Z,21.33
2019-04-21T21:42:53.327Z,15.88
2019-04-21T21:45:25.918Z,31.45
2019-04-21T21:48:11.085Z,9.15
2019-04-21T21:50:38.660Z,21.27
2019-04-21T21:53:05.878Z,6.97
2019-04-21T21:55:31.110Z,18.73
2019-04-21T21:58:03.475Z,21.90
2019-04-21T22:00:37.950Z,45.15
2019-04-21T22:03:14.769Z,18.42
2019-04-21T22:05:48.210Z,22.10
2019-04-21T22:08:06.848Z,9.93
2019-04-21T22:10:36.959Z,5.50
2019-04-21T22:13:12.284Z,5.22
2019-04-21T22:15:37.948Z,3.70
2019-04-21T22:18:24.708Z,4.22
2019-04-21T22:20:53.787Z,3.58
2019-04-21T22:23:23.425Z,3.45
2019-04-21T22:25:42.443Z,3.30
2019-04-21T22:28:13.911Z,3.02
2019-04-21T22:30:47.521Z,3.58
2019-04-21T22:33:18.094Z,3.27
2019-04-21T22:35:52.071Z,3.80
2019-04-21T22:38:31.085Z,3.67
2019-04-21T22:41:02.896Z,3.85
2019-04-21T22:43:28.486Z,4.33
2019-04-21T22:45:51.717Z,3.58
2019-04-21T22:48:26.285Z,4.12
2019-04-21T22:50:52.787Z,3.12
2019-04-21T22:53:23.059Z,3.80
2019-04-21T22:56:00.089Z,3.92
2019-04-21T22:58:29.295Z,3.20
2019-04-21T23:00:58.405Z,3.70
2019-04-21T23:03:28.918Z,4.28
2019-04-21T23:06:01.477Z,3.52
2019-04-21T23:08:37.045Z,3.87
2019-04-21T23:11:06.270Z,4.00
2019-04-21T23:13:34.544Z,4.15
2019-04-21T23:16:06.221Z,3.62
2019-04-21T23:18:53.005Z,4.35
2019-04-21T23:21:23.409Z,5.33
2019-04-21T23:23:59.602Z,5.33
2019-04-21T23:26:26.481Z,4.65
2019-04-21T23:29:01.987Z,5.00
2019-04-21T23:31:37.159Z,4.83
2019-04-21T23:33:44.508Z,5.12
2019-04-21T23:36:19.357Z,5.47
2019-04-21T23:38:49.427Z,6.12
2019-04-21T23:41:17.385Z,5.92
2019-04-21T23:43:52.909Z,5.28
2019-04-21T23:46:24.458Z,4.97
2019-04-21T23:49:07.416Z,4.58
2019-04-21T23:51:32.430Z,4.05
2019-04-21T23:53:53.350Z,4.65
2019-04-21T23:56:31.528Z,6.67
2019-04-21T23:58:59.862Z,5.97
